Freistadt, Austria
Current Conditions -  °F | °C
As of 10:50 AM on Wednesday 26 Nov 2014 (Local Time) from LOWL Reporting Station
Broken Clouds Broken Clouds  
Wind Chill: 33°   Ceiling: 2000
Heat Index: 39°   Visibility: 6mi
Dew Point: 32°   Wind: 9mph
Humidity: 75%   Direction: 90°E
Pressure: 30.12"   Gusts: NA
Location:  48.52°N, 14.5°E
Report Text: LOWL 260850Z 09008KT 9999 FEW019 BKN020 04/M00 Q1020 NOSIG
Loading
Personal Weather Stations






























Interactive Weather Map New forecast layout! Learn more

10-Day Weather Forecast

Advertisements
Track Severe Weather on mobile